Time;durP1;ratioP1;P1;durP2;ratioP2;P2;SDS_P1;SDS_P2;PMS_P1;PMS_P2;Temp;Humidity;BMP_temperature;BMP_pressure;BME280_temperature;BME280_humidity;BME280_pressure;Samples;Min_cycle;Max_cycle;Signal;HPM_P1;HPM_P2
2021/08/30 00:02:23;;;;;;;4.78;2.60;;;;;;;;;;5014425;28;20208;-65
2021/08/30 00:04:48;;;;;;;4.70;2.97;;;;;;;;;;5025901;28;20021;-66
2021/08/30 00:07:13;;;;;;;6.32;2.88;;;;;;;;;;5020415;28;20441;-66
2021/08/30 00:09:39;;;;;;;5.43;2.70;;;;;;;;;;5027678;28;20024;-64
2021/08/30 00:12:04;;;;;;;5.53;2.83;;;;;;;;;;5019610;28;20034;-65
2021/08/30 00:14:31;;;;;;;4.80;3.03;;;;;;;;;;5026744;28;20025;-64
2021/08/30 00:16:56;;;;;;;4.03;2.47;;;;;;;;;;5023918;28;20040;-65
2021/08/30 00:19:21;;;;;;;5.47;2.80;;;;;;;;;;5017136;28;20368;-65
2021/08/30 00:21:47;;;;;;;4.72;2.22;;;;;;;;;;5030383;28;20029;-66
2021/08/30 00:24:12;;;;;;;4.47;2.47;;;;;;;;;;5027926;28;20126;-65
2021/08/30 00:26:37;;;;;;;4.20;2.60;;;;;;;;;;5021411;28;20032;-65
2021/08/30 00:29:02;;;;;;;4.15;2.70;;;;;;;;;;5027992;28;20049;-66
2021/08/30 00:31:27;;;;;;;3.65;2.50;;;;;;;;;;5025654;28;20025;-66
2021/08/30 00:33:53;;;;;;;5.70;2.50;;;;;;;;;;5017504;28;20025;-65
2021/08/30 00:36:19;;;;;;;5.05;2.72;;;;;;;;;;5026473;28;20815;-66
2021/08/30 00:38:44;;;;;;;4.30;3.08;;;;;;;;;;5017189;28;20034;-65
2021/08/30 00:41:09;;;;;;;4.75;2.60;;;;;;;;;;5017290;28;20072;-65
2021/08/30 00:43:34;;;;;;;4.63;2.80;;;;;;;;;;5021445;28;20029;-65
2021/08/30 00:46:00;;;;;;;4.18;2.63;;;;;;;;;;5021975;28;20030;-65
2021/08/30 00:48:25;;;;;;;4.65;2.80;;;;;;;;;;5023617;28;20042;-66
2021/08/30 00:50:50;;;;;;;3.25;2.30;;;;;;;;;;5022759;28;20457;-65
2021/08/30 00:53:16;;;;;;;4.35;2.95;;;;;;;;;;5026520;28;20108;-65
2021/08/30 00:55:41;;;;;;;5.07;2.22;;;;;;;;;;5020439;28;20028;-65
2021/08/30 00:58:06;;;;;;;3.75;2.50;;;;;;;;;;5024577;28;20033;-66
2021/08/30 01:00:32;;;;;;;3.30;2.40;;;;;;;;;;5026689;28;20037;-66
2021/08/30 01:02:57;;;;;;;3.13;2.03;;;;;;;;;;5020327;28;20030;-65
2021/08/30 01:05:22;;;;;;;4.03;2.60;;;;;;;;;;5023791;28;20033;-66
2021/08/30 01:08:01;;;;;;;3.00;2.00;;;;;;;;;;5027433;28;20359;-65
2021/08/30 01:10:26;;;;;;;5.22;2.97;;;;;;;;;;5020887;28;20017;-66
2021/08/30 01:12:57;;;;;;;4.20;2.45;;;;;;;;;;5020431;28;20090;-66
2021/08/30 01:15:31;;;;;;;3.22;2.03;;;;;;;;;;5021232;28;20370;-66
2021/08/30 01:17:57;;;;;;;3.00;2.05;;;;;;;;;;5023726;28;20384;-66
2021/08/30 01:20:25;;;;;;;3.78;2.28;;;;;;;;;;5022096;28;20037;-66
2021/08/30 01:22:52;;;;;;;5.03;2.40;;;;;;;;;;5021413;28;20018;-66
2021/08/30 01:25:19;;;;;;;4.50;2.47;;;;;;;;;;5020841;28;20029;-65
2021/08/30 01:27:44;;;;;;;3.40;2.40;;;;;;;;;;5023764;28;20026;-65
2021/08/30 01:30:17;;;;;;;3.92;2.42;;;;;;;;;;5023536;28;20036;-66
2021/08/30 01:32:44;;;;;;;4.50;2.47;;;;;;;;;;5023868;28;20032;-66
2021/08/30 01:35:14;;;;;;;5.65;2.60;;;;;;;;;;5024772;28;20148;-65
2021/08/30 01:37:41;;;;;;;4.30;2.75;;;;;;;;;;5026857;28;20044;-65
2021/08/30 01:40:07;;;;;;;5.20;3.08;;;;;;;;;;5026432;28;20046;-65
2021/08/30 01:42:34;;;;;;;5.38;3.45;;;;;;;;;;5023454;28;20033;-65
2021/08/30 01:45:00;;;;;;;4.40;2.88;;;;;;;;;;5022737;28;20457;-65
2021/08/30 01:47:25;;;;;;;4.15;2.47;;;;;;;;;;5027100;28;20021;-64
2021/08/30 01:50:00;;;;;;;8.20;3.33;;;;;;;;;;5016349;28;20022;-66
2021/08/30 01:52:36;;;;;;;6.00;2.85;;;;;;;;;;5014606;28;20020;-66
2021/08/30 01:55:16;;;;;;;5.20;2.70;;;;;;;;;;5018103;28;20094;-64
2021/08/30 02:00:48;;;;;;;4.85;2.85;;;;;;;;;;5023646;28;20436;-66
2021/08/30 02:03:14;;;;;;;4.72;2.47;;;;;;;;;;5030862;28;20116;-66
2021/08/30 02:05:43;;;;;;;4.43;2.85;;;;;;;;;;5024868;28;20056;-66
2021/08/30 02:08:09;;;;;;;4.63;2.65;;;;;;;;;;5019761;28;20040;-66
2021/08/30 02:10:34;;;;;;;6.32;2.88;;;;;;;;;;5030433;28;20471;-66
2021/08/30 02:12:59;;;;;;;5.60;2.83;;;;;;;;;;5024193;28;22878;-66
2021/08/30 02:15:24;;;;;;;3.80;2.50;;;;;;;;;;5020960;28;20060;-66
2021/08/30 02:17:51;;;;;;;4.15;3.00;;;;;;;;;;5026799;28;20121;-66
2021/08/30 02:20:18;;;;;;;4.85;3.00;;;;;;;;;;5030581;28;20474;-64
2021/08/30 02:22:44;;;;;;;7.28;2.95;;;;;;;;;;5029378;28;20107;-65
2021/08/30 02:25:14;;;;;;;3.97;2.70;;;;;;;;;;5025260;28;20116;-66
2021/08/30 02:27:46;;;;;;;4.82;2.40;;;;;;;;;;5025818;28;20029;-66
2021/08/30 02:30:22;;;;;;;4.30;2.45;;;;;;;;;;5028932;28;20109;-65
2021/08/30 02:32:48;;;;;;;4.88;3.00;;;;;;;;;;5027437;28;20079;-67
2021/08/30 02:35:15;;;;;;;4.57;2.60;;;;;;;;;;5025410;28;20021;-65
2021/08/30 02:37:41;;;;;;;7.75;2.92;;;;;;;;;;5030983;28;20438;-65
2021/08/30 02:40:07;;;;;;;4.15;2.53;;;;;;;;;;5028209;28;20215;-66
2021/08/30 02:42:33;;;;;;;5.25;3.00;;;;;;;;;;5020384;28;20064;-64
2021/08/30 02:44:59;;;;;;;5.20;3.20;;;;;;;;;;5028729;28;20021;-66
2021/08/30 02:47:25;;;;;;;5.45;3.13;;;;;;;;;;5030661;28;20021;-65
2021/08/30 02:49:51;;;;;;;4.80;3.00;;;;;;;;;;5023457;28;20026;-65
2021/08/30 02:52:19;;;;;;;5.97;3.00;;;;;;;;;;5027580;28;20026;-65
2021/08/30 02:54:45;;;;;;;6.05;3.30;;;;;;;;;;5025434;28;20017;-64
2021/08/30 02:57:10;;;;;;;6.15;3.10;;;;;;;;;;5020522;28;20508;-66
2021/08/30 02:59:35;;;;;;;5.90;3.38;;;;;;;;;;5022411;28;20009;-65
2021/08/30 03:02:02;;;;;;;5.32;3.42;;;;;;;;;;5029879;28;20100;-65
2021/08/30 03:04:28;;;;;;;6.57;3.03;;;;;;;;;;5030315;28;20069;-65
2021/08/30 03:06:54;;;;;;;5.40;2.95;;;;;;;;;;5024264;28;20064;-65
2021/08/30 03:09:19;;;;;;;5.63;2.67;;;;;;;;;;5025698;28;20017;-66
2021/08/30 03:11:46;;;;;;;5.63;3.08;;;;;;;;;;5023635;28;20460;-66
2021/08/30 03:14:12;;;;;;;7.07;3.60;;;;;;;;;;5029362;28;20125;-65
2021/08/30 03:16:40;;;;;;;5.35;3.42;;;;;;;;;;5026399;28;20045;-65
2021/08/30 03:19:06;;;;;;;6.15;3.35;;;;;;;;;;5024748;28;20017;-65
2021/08/30 03:21:31;;;;;;;6.43;3.20;;;;;;;;;;5026968;28;20022;-65
2021/08/30 03:23:58;;;;;;;5.93;3.60;;;;;;;;;;5028431;28;20090;-65
2021/08/30 03:26:24;;;;;;;4.90;3.30;;;;;;;;;;5027846;28;20091;-65
2021/08/30 03:28:50;;;;;;;5.53;3.58;;;;;;;;;;5024950;28;20018;-65
2021/08/30 03:31:15;;;;;;;6.47;3.50;;;;;;;;;;5028241;28;20087;-66
2021/08/30 03:33:40;;;;;;;6.80;3.72;;;;;;;;;;5026240;28;20033;-66
2021/08/30 03:36:07;;;;;;;5.68;3.53;;;;;;;;;;5021045;28;20384;-65
2021/08/30 03:38:32;;;;;;;5.50;3.20;;;;;;;;;;5022832;28;20473;-64
2021/08/30 03:40:58;;;;;;;6.35;3.95;;;;;;;;;;5028805;28;20045;-65
2021/08/30 03:43:24;;;;;;;6.22;3.83;;;;;;;;;;5018270;28;20037;-65
2021/08/30 03:45:49;;;;;;;6.20;3.25;;;;;;;;;;5022424;28;20025;-66
2021/08/30 03:48:15;;;;;;;8.82;3.92;;;;;;;;;;5026687;28;20117;-65
2021/08/30 03:50:40;;;;;;;7.20;3.63;;;;;;;;;;5024457;28;20018;-66
2021/08/30 03:53:06;;;;;;;8.25;3.70;;;;;;;;;;5026909;28;20048;-65
2021/08/30 03:55:31;;;;;;;5.93;3.50;;;;;;;;;;5027941;28;20025;-66
2021/08/30 03:57:58;;;;;;;4.35;3.25;;;;;;;;;;5022363;28;20407;-65
2021/08/30 04:00:25;;;;;;;5.90;3.45;;;;;;;;;;5028918;28;20033;-66
2021/08/30 04:02:51;;;;;;;5.13;3.30;;;;;;;;;;5028256;28;20507;-66
2021/08/30 04:05:18;;;;;;;6.18;3.10;;;;;;;;;;5021370;28;20025;-65
2021/08/30 04:07:43;;;;;;;7.90;2.90;;;;;;;;;;5026394;28;20079;-66
2021/08/30 04:10:09;;;;;;;5.10;2.85;;;;;;;;;;5025630;28;20025;-65
2021/08/30 04:12:34;;;;;;;6.88;2.75;;;;;;;;;;5027167;28;20108;-65
2021/08/30 04:14:59;;;;;;;6.47;3.08;;;;;;;;;;5026035;28;20025;-66
2021/08/30 04:17:24;;;;;;;5.63;2.42;;;;;;;;;;5027853;28;20056;-66
2021/08/30 04:19:50;;;;;;;4.43;2.78;;;;;;;;;;5024616;28;20070;-66
2021/08/30 04:22:15;;;;;;;6.47;2.53;;;;;;;;;;5022550;28;20341;-66
2021/08/30 04:24:40;;;;;;;4.47;2.67;;;;;;;;;;5028515;28;20105;-65
2021/08/30 04:27:05;;;;;;;4.18;2.20;;;;;;;;;;5025567;28;20029;-66
2021/08/30 04:29:32;;;;;;;6.15;2.38;;;;;;;;;;5022261;28;20478;-66
2021/08/30 04:31:59;;;;;;;3.78;2.08;;;;;;;;;;5020033;28;20036;-66
2021/08/30 04:34:24;;;;;;;4.47;2.25;;;;;;;;;;5019884;28;20796;-64
2021/08/30 04:36:50;;;;;;;3.65;2.20;;;;;;;;;;5020854;28;20029;-65
2021/08/30 04:39:15;;;;;;;3.05;1.90;;;;;;;;;;5028546;28;20849;-65
2021/08/30 04:41:42;;;;;;;4.32;1.98;;;;;;;;;;5023850;28;20552;-66
2021/08/30 04:44:07;;;;;;;4.40;1.85;;;;;;;;;;5024880;28;20030;-66
2021/08/30 04:46:33;;;;;;;3.97;2.20;;;;;;;;;;5021943;28;20033;-67
2021/08/30 04:48:58;;;;;;;4.95;2.05;;;;;;;;;;5022720;28;20040;-66
2021/08/30 04:51:23;;;;;;;5.28;2.00;;;;;;;;;;5021599;28;20028;-66
2021/08/30 04:53:48;;;;;;;5.10;2.35;;;;;;;;;;5027611;28;20036;-65
2021/08/30 04:56:13;;;;;;;3.73;2.10;;;;;;;;;;5022283;28;20160;-66
2021/08/30 04:58:39;;;;;;;3.28;1.80;;;;;;;;;;5025594;28;20276;-65
2021/08/30 05:01:04;;;;;;;3.47;2.03;;;;;;;;;;5027986;28;20029;-65
2021/08/30 05:03:29;;;;;;;4.50;2.20;;;;;;;;;;5023794;28;20482;-65
2021/08/30 05:05:54;;;;;;;3.50;1.92;;;;;;;;;;5025120;28;20041;-65
2021/08/30 05:08:19;;;;;;;3.28;1.80;;;;;;;;;;5020586;28;20044;-65
2021/08/30 05:10:45;;;;;;;5.40;2.25;;;;;;;;;;5029245;28;20025;-66
2021/08/30 05:13:10;;;;;;;7.97;2.00;;;;;;;;;;5028120;28;20063;-65
2021/08/30 05:15:35;;;;;;;3.85;1.95;;;;;;;;;;5028954;28;20099;-66
2021/08/30 05:18:00;;;;;;;5.22;2.55;;;;;;;;;;5025482;28;20053;-65
2021/08/30 05:20:26;;;;;;;4.45;2.10;;;;;;;;;;5017658;28;20129;-65
2021/08/30 05:22:51;;;;;;;4.32;2.13;;;;;;;;;;5025698;28;20436;-65
2021/08/30 05:25:16;;;;;;;5.03;2.17;;;;;;;;;;5027015;28;20040;-66
2021/08/30 05:27:43;;;;;;;4.43;2.20;;;;;;;;;;5023578;28;20421;-71
2021/08/30 05:30:08;;;;;;;3.58;2.53;;;;;;;;;;5021149;28;20022;-70
2021/08/30 05:32:33;;;;;;;4.47;2.55;;;;;;;;;;5028681;28;20491;-71
2021/08/30 05:34:59;;;;;;;4.33;2.23;;;;;;;;;;5029178;28;20091;-71
2021/08/30 05:37:24;;;;;;;5.10;2.42;;;;;;;;;;5032165;28;20299;-72
2021/08/30 05:39:49;;;;;;;4.72;2.00;;;;;;;;;;5027963;28;20037;-72
2021/08/30 05:42:14;;;;;;;5.00;2.83;;;;;;;;;;5029701;28;20039;-72
2021/08/30 05:44:40;;;;;;;5.97;2.20;;;;;;;;;;5030663;28;20767;-72
2021/08/30 05:47:05;;;;;;;6.28;2.50;;;;;;;;;;5032843;28;20017;-73
2021/08/30 05:49:30;;;;;;;5.95;2.10;;;;;;;;;;5031518;28;20112;-72
2021/08/30 05:51:55;;;;;;;6.25;2.10;;;;;;;;;;5032644;28;20025;-72
2021/08/30 05:54:20;;;;;;;4.43;2.15;;;;;;;;;;5024063;28;20017;-72
2021/08/30 05:56:46;;;;;;;3.78;1.92;;;;;;;;;;5028180;28;20033;-72
2021/08/30 05:59:11;;;;;;;5.25;1.88;;;;;;;;;;5026705;28;20116;-71
2021/08/30 06:01:37;;;;;;;4.18;2.20;;;;;;;;;;5028528;28;20041;-72
2021/08/30 06:04:03;;;;;;;3.40;1.98;;;;;;;;;;5029840;28;20117;-72
2021/08/30 06:06:28;;;;;;;2.85;1.95;;;;;;;;;;5034339;28;20053;-72
2021/08/30 06:08:54;;;;;;;3.40;1.90;;;;;;;;;;5033921;28;20017;-73
2021/08/30 06:11:19;;;;;;;2.80;1.90;;;;;;;;;;5033728;28;20022;-71
2021/08/30 06:13:44;;;;;;;2.45;1.77;;;;;;;;;;5042914;28;20021;-71
2021/08/30 06:16:09;;;;;;;3.88;2.13;;;;;;;;;;5026204;28;20041;-70
2021/08/30 06:18:35;;;;;;;2.90;1.85;;;;;;;;;;5019457;28;20041;-69
2021/08/30 06:21:00;;;;;;;3.95;2.03;;;;;;;;;;5034423;28;20745;-70
2021/08/30 06:23:26;;;;;;;2.63;1.65;;;;;;;;;;5026546;28;20026;-61
2021/08/30 06:25:51;;;;;;;4.38;1.85;;;;;;;;;;5027630;28;20040;-61
2021/08/30 06:28:16;;;;;;;2.88;1.67;;;;;;;;;;5032055;28;20064;-61
2021/08/30 06:30:41;;;;;;;4.68;1.65;;;;;;;;;;5023049;28;20499;-61
2021/08/30 06:33:07;;;;;;;3.47;1.60;;;;;;;;;;5022650;28;20067;-61
2021/08/30 06:35:32;;;;;;;3.30;1.40;;;;;;;;;;5031088;28;20045;-62
2021/08/30 06:37:57;;;;;;;3.03;1.50;;;;;;;;;;5031561;28;20044;-61
2021/08/30 06:40:23;;;;;;;3.72;1.55;;;;;;;;;;5031033;28;20484;-61
2021/08/30 06:42:49;;;;;;;3.75;1.48;;;;;;;;;;5031621;28;20041;-62
2021/08/30 06:45:14;;;;;;;2.40;1.45;;;;;;;;;;5028822;28;20401;-62
2021/08/30 06:47:39;;;;;;;2.78;1.50;;;;;;;;;;5030831;28;20022;-62
2021/08/30 06:50:05;;;;;;;1.63;1.23;;;;;;;;;;5031117;28;20025;-61
2021/08/30 06:52:30;;;;;;;1.98;1.23;;;;;;;;;;5031431;28;20029;-62
2021/08/30 06:54:55;;;;;;;2.92;1.30;;;;;;;;;;5028574;28;20053;-62
2021/08/30 06:57:20;;;;;;;2.17;1.20;;;;;;;;;;5023097;28;20120;-61
2021/08/30 06:59:46;;;;;;;2.10;1.20;;;;;;;;;;5031104;28;20104;-62
2021/08/30 07:02:11;;;;;;;1.77;1.10;;;;;;;;;;5030987;28;20405;-61
2021/08/30 07:04:36;;;;;;;1.55;0.95;;;;;;;;;;5030697;28;20017;-61
2021/08/30 07:07:02;;;;;;;1.33;0.95;;;;;;;;;;5028981;28;20030;-61
2021/08/30 07:09:27;;;;;;;3.72;1.40;;;;;;;;;;5027106;28;20032;-62
2021/08/30 07:11:52;;;;;;;2.33;1.08;;;;;;;;;;5031043;28;20025;-61
2021/08/30 07:14:18;;;;;;;2.38;0.93;;;;;;;;;;5030671;28;20025;-61
2021/08/30 07:16:44;;;;;;;1.45;0.70;;;;;;;;;;5030775;28;20538;-61
2021/08/30 07:19:09;;;;;;;0.57;0.52;;;;;;;;;;5028530;28;20595;-62
2021/08/30 07:21:34;;;;;;;0.90;0.30;;;;;;;;;;5032333;28;20104;-62
2021/08/30 07:23:59;;;;;;;0.35;0.30;;;;;;;;;;5030519;28;20013;-61
2021/08/30 07:26:24;;;;;;;1.88;0.40;;;;;;;;;;5031117;28;20028;-62
2021/08/30 07:28:50;;;;;;;1.10;0.50;;;;;;;;;;5026756;28;20022;-62
2021/08/30 07:31:15;;;;;;;1.10;0.60;;;;;;;;;;5028674;28;20453;-61
2021/08/30 07:33:41;;;;;;;0.80;0.60;;;;;;;;;;5030524;28;20384;-63
2021/08/30 07:36:06;;;;;;;0.80;0.55;;;;;;;;;;5030174;28;20034;-62
2021/08/30 07:38:31;;;;;;;1.60;0.70;;;;;;;;;;5030320;28;20454;-62
2021/08/30 07:40:57;;;;;;;1.00;0.80;;;;;;;;;;5024935;28;20057;-63
2021/08/30 07:43:22;;;;;;;1.73;0.80;;;;;;;;;;5030234;28;20044;-61
2021/08/30 07:45:47;;;;;;;2.83;0.90;;;;;;;;;;5030357;28;20018;-61
2021/08/30 07:48:12;;;;;;;1.15;0.80;;;;;;;;;;5030203;28;20018;-61
2021/08/30 07:50:38;;;;;;;0.90;0.70;;;;;;;;;;5027778;28;20029;-61
2021/08/30 07:53:03;;;;;;;0.93;0.80;;;;;;;;;;5025267;28;20618;-61
2021/08/30 07:55:34;;;;;;;1.67;0.80;;;;;;;;;;5029826;28;20268;-61
2021/08/30 07:57:59;;;;;;;1.00;0.90;;;;;;;;;;5030029;28;20037;-61
2021/08/30 08:00:24;;;;;;;1.73;1.05;;;;;;;;;;5029569;28;20024;-61
2021/08/30 08:02:51;;;;;;;2.90;1.10;;;;;;;;;;5024567;28;20136;-62
2021/08/30 08:05:16;;;;;;;2.30;1.60;;;;;;;;;;5029826;28;20248;-62
2021/08/30 08:07:42;;;;;;;2.53;1.20;;;;;;;;;;5029828;28;20036;-62
2021/08/30 08:10:07;;;;;;;1.53;1.00;;;;;;;;;;5025152;28;20105;-62
2021/08/30 08:12:33;;;;;;;3.35;1.20;;;;;;;;;;5029394;28;20279;-61
2021/08/30 08:14:58;;;;;;;3.38;1.50;;;;;;;;;;5029973;28;20018;-62
2021/08/30 08:17:23;;;;;;;4.77;1.60;;;;;;;;;;5029334;28;20049;-62
2021/08/30 08:19:48;;;;;;;4.13;1.52;;;;;;;;;;5031966;28;20257;-62
2021/08/30 08:22:13;;;;;;;3.15;1.27;;;;;;;;;;5028556;28;20098;-62
2021/08/30 08:24:38;;;;;;;3.40;1.30;;;;;;;;;;5029845;28;20022;-63
2021/08/30 08:27:04;;;;;;;8.23;2.60;;;;;;;;;;5028581;28;20836;-62
2021/08/30 08:29:29;;;;;;;2.88;1.45;;;;;;;;;;5029698;28;20060;-61
2021/08/30 08:31:54;;;;;;;1.75;1.20;;;;;;;;;;5027260;28;20104;-62
2021/08/30 08:34:19;;;;;;;2.47;1.25;;;;;;;;;;5029483;28;20380;-62
2021/08/30 08:36:45;;;;;;;2.63;1.20;;;;;;;;;;5027294;28;20494;-62
2021/08/30 08:39:10;;;;;;;1.25;1.02;;;;;;;;;;5028992;28;20087;-62
2021/08/30 08:41:36;;;;;;;1.85;1.13;;;;;;;;;;5028780;28;20476;-62
2021/08/30 08:44:04;;;;;;;2.03;1.38;;;;;;;;;;5029309;28;20021;-61
2021/08/30 08:46:30;;;;;;;1.58;1.00;;;;;;;;;;5029047;28;20029;-61
2021/08/30 08:48:56;;;;;;;3.83;1.17;;;;;;;;;;5029076;28;20044;-62
2021/08/30 08:51:21;;;;;;;1.88;1.10;;;;;;;;;;5029741;28;20013;-61
2021/08/30 08:53:47;;;;;;;6.85;1.40;;;;;;;;;;5028837;28;20028;-61
2021/08/30 08:56:13;;;;;;;2.95;0.90;;;;;;;;;;5024723;28;20018;-61
2021/08/30 08:58:40;;;;;;;1.95;0.95;;;;;;;;;;5022700;28;20396;-62
2021/08/30 09:01:12;;;;;;;2.30;1.10;;;;;;;;;;5028825;28;20017;-62
2021/08/30 09:03:48;;;;;;;2.58;0.95;;;;;;;;;;5022930;28;20407;-62
2021/08/30 09:06:23;;;;;;;3.63;1.10;;;;;;;;;;5028709;28;20026;-62
2021/08/30 09:08:52;;;;;;;1.27;0.80;;;;;;;;;;5028058;28;20025;-62
2021/08/30 09:11:20;;;;;;;0.93;0.68;;;;;;;;;;5028078;28;20132;-61
2021/08/30 09:13:52;;;;;;;1.35;0.80;;;;;;;;;;5028997;28;20105;-62
2021/08/30 09:16:19;;;;;;;3.40;1.65;;;;;;;;;;5028772;28;20018;-60
2021/08/30 09:18:44;;;;;;;3.13;0.90;;;;;;;;;;5027203;28;20437;-62
2021/08/30 09:21:09;;;;;;;2.13;0.75;;;;;;;;;;5032958;28;20024;-61
2021/08/30 09:23:34;;;;;;;2.22;0.80;;;;;;;;;;5028820;28;20057;-62
2021/08/30 09:26:00;;;;;;;1.35;0.75;;;;;;;;;;5028849;28;20017;-61
2021/08/30 09:28:29;;;;;;;2.75;1.30;;;;;;;;;;5026888;28;20028;-61
2021/08/30 09:30:56;;;;;;;0.98;0.65;;;;;;;;;;5028985;28;20423;-61
2021/08/30 09:33:21;;;;;;;1.52;0.85;;;;;;;;;;5028484;28;20033;-62
2021/08/30 09:35:54;;;;;;;1.35;0.80;;;;;;;;;;5028740;28;20424;-63
2021/08/30 09:38:19;;;;;;;0.93;0.77;;;;;;;;;;5027577;28;20128;-62
2021/08/30 09:40:44;;;;;;;1.05;0.70;;;;;;;;;;5023594;28;20116;-62
2021/08/30 09:43:17;;;;;;;1.63;0.82;;;;;;;;;;5028422;28;20116;-62
2021/08/30 09:45:43;;;;;;;0.45;0.45;;;;;;;;;;5028410;28;20025;-62
2021/08/30 09:48:12;;;;;;;1.10;0.63;;;;;;;;;;5028379;28;20017;-62
2021/08/30 09:50:43;;;;;;;1.58;0.60;;;;;;;;;;5027771;28;20033;-61
2021/08/30 09:53:08;;;;;;;0.65;0.50;;;;;;;;;;5028000;28;20555;-62
2021/08/30 09:55:36;;;;;;;1.55;0.73;;;;;;;;;;5028397;28;20040;-62
2021/08/30 09:58:02;;;;;;;1.95;0.57;;;;;;;;;;5028168;28;20432;-62
2021/08/30 10:00:27;;;;;;;1.85;0.85;;;;;;;;;;5023347;28;20022;-62
2021/08/30 10:02:53;;;;;;;1.48;0.70;;;;;;;;;;5028600;28;20325;-61
2021/08/30 10:05:22;;;;;;;0.85;0.52;;;;;;;;;;5028070;28;20157;-61
2021/08/30 10:07:48;;;;;;;0.80;0.60;;;;;;;;;;5028678;28;20060;-62
2021/08/30 10:10:14;;;;;;;0.70;0.47;;;;;;;;;;5027662;28;20284;-62
2021/08/30 10:12:39;;;;;;;1.00;0.60;;;;;;;;;;5021907;28;20021;-63
2021/08/30 10:15:05;;;;;;;1.30;0.70;;;;;;;;;;5028254;28;20025;-61
2021/08/30 10:17:31;;;;;;;0.75;0.60;;;;;;;;;;5028100;28;20057;-62
2021/08/30 10:20:00;;;;;;;1.20;0.70;;;;;;;;;;5027797;28;20435;-62
2021/08/30 10:22:26;;;;;;;;;;;;;;;;;;5022144;28;20037;-62
2021/08/30 10:24:52;;;;;;;0.95;0.68;;;;;;;;;;5030520;28;19909;-62
2021/08/30 10:27:31;;;;;;;0.60;0.60;;;;;;;;;;5031028;28;20026;-62
2021/08/30 10:30:10;;;;;;;2.73;0.80;;;;;;;;;;5025267;28;20032;-61
2021/08/30 10:32:39;;;;;;;1.30;0.68;;;;;;;;;;5025415;28;20117;-62
2021/08/30 10:35:12;;;;;;;1.30;0.70;;;;;;;;;;5030843;28;20100;-62
2021/08/30 10:37:46;;;;;;;2.55;0.70;;;;;;;;;;5031613;28;20045;-62
2021/08/30 10:40:21;;;;;;;1.45;0.77;;;;;;;;;;5031076;28;20497;-62
2021/08/30 10:42:56;;;;;;;1.42;0.70;;;;;;;;;;5030816;28;20502;-63
2021/08/30 10:45:28;;;;;;;1.27;0.70;;;;;;;;;;5031297;28;20013;-62
2021/08/30 10:47:57;;;;;;;1.95;0.80;;;;;;;;;;5029927;28;20504;-62
2021/08/30 10:50:24;;;;;;;1.80;0.90;;;;;;;;;;5032103;28;20119;-62
2021/08/30 10:52:49;;;;;;;1.52;0.80;;;;;;;;;;5029988;28;20538;-63
2021/08/30 10:55:19;;;;;;;2.92;0.80;;;;;;;;;;5029507;28;20105;-61
2021/08/30 10:57:51;;;;;;;2.22;0.98;;;;;;;;;;5030768;28;20037;-62
2021/08/30 11:00:17;;;;;;;2.45;0.80;;;;;;;;;;5030670;28;20029;-61
2021/08/30 11:02:49;;;;;;;1.15;0.70;;;;;;;;;;5031347;28;20036;-62
2021/08/30 11:05:17;;;;;;;1.63;0.95;;;;;;;;;;5030345;28;20509;-62
2021/08/30 11:07:43;;;;;;;1.60;0.80;;;;;;;;;;5030950;28;20108;-62
2021/08/30 11:10:08;;;;;;;1.08;0.75;;;;;;;;;;5030376;28;20112;-62
2021/08/30 11:12:33;;;;;;;1.45;0.90;;;;;;;;;;5030976;28;20014;-62
2021/08/30 11:14:59;;;;;;;2.97;0.88;;;;;;;;;;5029394;28;20026;-62
2021/08/30 11:17:28;;;;;;;2.92;0.88;;;;;;;;;;5030716;28;20033;-62
2021/08/30 11:19:54;;;;;;;3.05;1.00;;;;;;;;;;5033341;28;20503;-61
2021/08/30 11:22:20;;;;;;;2.63;1.35;;;;;;;;;;5031654;28;20049;-62
2021/08/30 11:24:45;;;;;;;1.35;1.00;;;;;;;;;;5030080;28;20018;-62
2021/08/30 11:27:20;;;;;;;1.70;1.27;;;;;;;;;;5029195;28;20032;-62
2021/08/30 11:29:49;;;;;;;1.83;1.13;;;;;;;;;;5030615;28;20025;-63
2021/08/30 11:32:14;;;;;;;;;;;;;;;;;;5031071;28;20025;-62
2021/08/30 11:34:40;;;;;;;1.50;1.13;;;;;;;;;;5027712;28;19905;-61
2021/08/30 11:37:07;;;;;;;1.50;1.20;;;;;;;;;;5030448;28;20033;-61
2021/08/30 11:39:33;;;;;;;1.77;1.00;;;;;;;;;;5030026;28;20022;-63
2021/08/30 11:42:05;;;;;;;1.90;1.00;;;;;;;;;;5030324;28;20092;-62
2021/08/30 11:44:30;;;;;;;2.42;1.20;;;;;;;;;;5029817;28;20104;-62
2021/08/30 11:46:57;;;;;;;1.70;1.00;;;;;;;;;;5029429;28;20112;-62
2021/08/30 11:49:23;;;;;;;2.08;1.00;;;;;;;;;;5029851;28;20029;-62
2021/08/30 11:51:50;;;;;;;2.05;1.40;;;;;;;;;;5028988;28;20428;-62
2021/08/30 11:54:17;;;;;;;1.33;0.88;;;;;;;;;;5029737;28;20025;-62
2021/08/30 11:56:50;;;;;;;1.63;0.90;;;;;;;;;;5026343;28;20117;-62
2021/08/30 11:59:23;;;;;;;1.98;1.00;;;;;;;;;;5026333;28;20157;-63
2021/08/30 12:01:49;;;;;;;1.98;1.40;;;;;;;;;;5021372;28;20071;-63
2021/08/30 12:04:16;;;;;;;2.97;1.70;;;;;;;;;;5024204;28;20431;-61
2021/08/30 12:06:53;;;;;;;3.08;2.10;;;;;;;;;;5017232;28;20080;-62
2021/08/30 12:09:19;;;;;;;2.63;1.60;;;;;;;;;;5018509;28;20017;-62
2021/08/30 12:11:49;;;;;;;2.83;1.80;;;;;;;;;;5026055;28;20075;-62
2021/08/30 12:14:14;;;;;;;;;;;;;;;;;;5025026;28;20513;-63
2021/08/30 12:16:41;;;;;;;2.13;1.55;;;;;;;;;;5023678;28;20461;-62
2021/08/30 12:19:07;;;;;;;3.53;1.65;;;;;;;;;;5020735;28;20267;-62
2021/08/30 12:21:34;;;;;;;2.03;1.30;;;;;;;;;;5022487;28;20029;-62
2021/08/30 12:23:59;;;;;;;3.53;1.55;;;;;;;;;;5015838;28;20512;-62
2021/08/30 12:26:25;;;;;;;2.53;1.75;;;;;;;;;;5017223;28;20010;-61
2021/08/30 12:28:58;;;;;;;3.15;1.67;;;;;;;;;;5022860;28;20049;-62
2021/08/30 12:31:30;;;;;;;2.08;1.48;;;;;;;;;;5016544;28;20025;-62
2021/08/30 12:34:02;;;;;;;2.78;1.70;;;;;;;;;;5022482;28;20420;-62
2021/08/30 12:36:28;;;;;;;2.63;1.38;;;;;;;;;;5022568;28;20101;-62
2021/08/30 12:38:53;;;;;;;3.15;1.45;;;;;;;;;;5024517;28;20037;-61
2021/08/30 12:41:19;;;;;;;2.45;1.60;;;;;;;;;;5022406;28;20054;-61
2021/08/30 12:43:47;;;;;;;1.90;1.25;;;;;;;;;;5022272;28;20096;-61
2021/08/30 12:46:12;;;;;;;2.38;1.50;;;;;;;;;;5021047;28;20033;-62
2021/08/30 12:48:37;;;;;;;1.80;1.50;;;;;;;;;;5019979;28;20022;-63
2021/08/30 12:51:02;;;;;;;3.05;1.77;;;;;;;;;;5019418;28;20026;-61
2021/08/30 12:53:28;;;;;;;2.47;1.73;;;;;;;;;;5016824;28;20022;-61
2021/08/30 12:55:53;;;;;;;2.05;1.40;;;;;;;;;;5016193;28;20737;-62
2021/08/30 12:58:18;;;;;;;2.00;1.60;;;;;;;;;;5018073;28;20112;-62
2021/08/30 13:00:43;;;;;;;1.80;1.48;;;;;;;;;;5017120;28;20827;-63
2021/08/30 13:03:09;;;;;;;1.58;1.40;;;;;;;;;;5020641;28;20429;-63
2021/08/30 13:05:39;;;;;;;1.65;1.27;;;;;;;;;;5026442;28;20052;-62
2021/08/30 13:08:05;;;;;;;2.20;1.30;;;;;;;;;;5023138;28;20473;-61
2021/08/30 13:10:30;;;;;;;3.65;1.20;;;;;;;;;;5020984;28;20071;-62
2021/08/30 13:12:56;;;;;;;2.28;1.45;;;;;;;;;;5021669;28;20022;-63
2021/08/30 13:15:22;;;;;;;1.90;1.38;;;;;;;;;;5021640;28;20365;-62
2021/08/30 13:17:48;;;;;;;7.40;1.60;;;;;;;;;;5022969;28;20560;-62
2021/08/30 13:20:14;;;;;;;1.85;1.20;;;;;;;;;;5033531;28;20025;-62
2021/08/30 13:22:40;;;;;;;3.20;1.52;;;;;;;;;;5028468;28;20025;-62
2021/08/30 13:25:08;;;;;;;1.60;1.23;;;;;;;;;;5022864;28;20108;-62
2021/08/30 13:27:34;;;;;;;2.65;1.27;;;;;;;;;;5023381;28;20018;-61
2021/08/30 13:29:59;;;;;;;1.70;1.23;;;;;;;;;;5028560;28;20473;-61
2021/08/30 13:32:24;;;;;;;1.50;1.00;;;;;;;;;;5025787;28;20259;-61
2021/08/30 13:34:49;;;;;;;1.30;1.10;;;;;;;;;;5028582;28;20351;-62
2021/08/30 13:37:14;;;;;;;1.45;1.00;;;;;;;;;;5025374;28;20292;-62
2021/08/30 13:39:39;;;;;;;1.57;1.13;;;;;;;;;;5028077;28;20072;-61
2021/08/30 13:42:05;;;;;;;1.48;1.00;;;;;;;;;;5028189;28;20371;-60
2021/08/30 13:44:32;;;;;;;1.23;0.90;;;;;;;;;;5028654;28;20032;-61
2021/08/30 13:46:57;;;;;;;4.32;1.23;;;;;;;;;;5028669;28;20067;-61
2021/08/30 13:49:22;;;;;;;2.50;1.07;;;;;;;;;;5028255;28;20017;-61
2021/08/30 13:51:47;;;;;;;1.73;1.17;;;;;;;;;;5029928;28;20272;-60
2021/08/30 13:54:12;;;;;;;1.47;1.03;;;;;;;;;;5028246;28;20423;-61
2021/08/30 13:56:38;;;;;;;1.80;1.33;;;;;;;;;;5029403;28;20332;-62
2021/08/30 13:59:03;;;;;;;1.37;1.10;;;;;;;;;;5028553;28;20624;-62
2021/08/30 14:01:28;;;;;;;1.52;1.10;;;;;;;;;;5032043;28;20334;-61
2021/08/30 14:03:54;;;;;;;1.90;1.10;;;;;;;;;;5026709;28;20453;-62
2021/08/30 14:06:19;;;;;;;1.63;1.03;;;;;;;;;;5025241;28;20351;-60
2021/08/30 14:08:44;;;;;;;2.20;1.10;;;;;;;;;;5031857;28;20260;-61
2021/08/30 14:11:09;;;;;;;1.48;1.10;;;;;;;;;;5026419;28;20036;-62
2021/08/30 14:13:34;;;;;;;1.80;1.30;;;;;;;;;;5031539;28;20037;-62
2021/08/30 14:16:00;;;;;;;1.80;1.10;;;;;;;;;;5031855;28;20104;-62
2021/08/30 14:18:25;;;;;;;3.60;1.10;;;;;;;;;;5031836;28;20298;-62
2021/08/30 14:20:50;;;;;;;1.57;1.03;;;;;;;;;;5036351;28;20029;-62
2021/08/30 14:23:18;;;;;;;1.25;0.80;;;;;;;;;;5026269;28;20272;-62
2021/08/30 14:25:43;;;;;;;3.30;0.80;;;;;;;;;;5028626;28;20056;-62
2021/08/30 14:28:08;;;;;;;1.20;0.60;;;;;;;;;;5031326;28;20045;-61
2021/08/30 14:30:34;;;;;;;2.07;0.70;;;;;;;;;;5031477;28;20259;-61
2021/08/30 14:32:59;;;;;;;1.17;0.82;;;;;;;;;;5029686;28;20272;-63
2021/08/30 14:35:24;;;;;;;1.20;0.77;;;;;;;;;;5028983;28;20164;-61
2021/08/30 14:37:49;;;;;;;0.75;0.57;;;;;;;;;;5028560;28;20295;-62
2021/08/30 14:40:14;;;;;;;0.80;0.60;;;;;;;;;;5027327;28;20417;-62
2021/08/30 14:42:41;;;;;;;0.82;0.55;;;;;;;;;;5025595;28;20422;-62